Terminal Aerodrome Forecast
Issued by NWS

Home | Current Version | Previous Version | Graphics & Text | Print | Product List | Glossary On
Versions: 1 2 3 4 5 6 7 8 9 10 11 12 13 14 15 16 17 18 19 20 21
000
FTUS43 KGRB 200929 AAB
TAFCWA
TAF AMD
KCWA 200929Z 2009/2106 05007KT 3SM BR OVC003
      TEMPO 2010/2011 2SM -FZDZ BR
     FM201100 12004KT 1 1/2SM FZRAPL BR OVC002
     FM201500 12004KT 3SM -FZDZ BR OVC005
     FM202000 26006KT 6SM BR OVC005
     FM202300 29009KT P6SM BKN016
      AMD LTD TO CLD VIS AND WIND TIL 201200=

USA.gov is the U.S. government's official web portal to all federal, state and local government web resources and services.